PWSweather.com
Personal Weather Stations
Station Observations
PICKERING
North Yorkshire, PickeringGB

North YorkshirePickeringGB

Lat: 54.2494, Lon: -0.7725

Elevation: 192

Station Type: Oregon Scientific WMR100

http://www.yorkshirewalker.co.uk/weather/

High Low Average
Temperature 52.3°F11.3°C 41.7°F5.4°C 46.0°F7.8°C
Dew Point 42.8°F6.0°C 35.6°F2.0°C 38.5°F3.6°C
Winds 9.1 mph 14.6 kmh 1.2 mph 1.9 kmh 4.0 mph SSW6.4 kmh SSW
Wind Gusts 15.4 mph24.8 kmh 3.1 mph5.0 kmh 8.0 mph12.9 kmh
Humidity 83% 61% 74%
Pressure 29.09 in985.1 mb 28.77 in974.3 mb -
Precipitation 0.00 in0.0 mm - -
Hour Temp Dew Point Humidity Winds Wind Gusts Pressure Precip Precip Rate Daily Precip Total
12:00 AM 45.0°F7.2°C 39.2°F4.0°C 78% 3.2 mph SSE5.1 kmh SSE 5.8 mph9.3 kmh 29.09 in985.1 mb 0.00 in0.0 mm 0.00 in0.0 mm 0.00 in0.0 mm
12:05 AM 45.1°F7.3°C 39.2°F4.0°C 78% 4.1 mph S6.6 kmh S 6.5 mph10.5 kmh 29.09 in985.1 mb 0.00 in0.0 mm 0.00 in0.0 mm 0.00 in0.0 mm
12:10 AM 45.1°F7.3°C 39.2°F4.0°C 78% 5.6 mph S9.0 kmh S 9.8 mph15.8 kmh 29.06 in984.1 mb 0.00 in0.0 mm 0.00 in0.0 mm 0.00 in0.0 mm
12:15 AM 45.1°F7.3°C 39.2°F4.0°C 78% 6.3 mph S10.1 kmh S 9.8 mph15.8 kmh 29.06 in984.1 mb 0.00 in0.0 mm 0.00 in0.0 mm 0.00 in0.0 mm
12:20 AM 45.3°F7.4°C 39.2°F4.0°C 79% 6.0 mph S9.7 kmh S 9.2 mph14.8 kmh 29.06 in984.1 mb 0.00 in0.0 mm 0.00 in0.0 mm 0.00 in0.0 mm
12:25 AM 45.3°F7.4°C 39.2°F4.0°C 79% 4.6 mph S7.4 kmh S 7.8 mph12.6 kmh 29.09 in985.1 mb 0.00 in0.0 mm 0.00 in0.0 mm 0.00 in0.0 mm
12:30 AM 45.1°F7.3°C 39.2°F4.0°C 79% 4.3 mph S6.9 kmh S 7.8 mph12.6 kmh 29.09 in985.1 mb 0.00 in0.0 mm 0.00 in0.0 mm 0.00 in0.0 mm
12:35 AM 45.3°F7.4°C 39.2°F4.0°C 79% 4.4 mph S7.1 kmh S 6.0 mph9.7 kmh 29.09 in985.1 mb 0.00 in0.0 mm 0.00 in0.0 mm 0.00 in0.0 mm
12:40 AM 45.3°F7.4°C 39.2°F4.0°C 79% 4.7 mph SSW7.6 kmh SSW 6.3 mph10.1 kmh 29.09 in985.1 mb 0.00 in0.0 mm 0.00 in0.0 mm 0.00 in0.0 mm
12:45 AM 45.3°F7.4°C 39.2°F4.0°C 79% 4.7 mph S7.6 kmh S 6.5 mph10.5 kmh 29.09 in985.1 mb 0.00 in0.0 mm 0.00 in0.0 mm 0.00 in0.0 mm
12:50 AM 45.1°F7.3°C 39.2°F4.0°C 79% 4.7 mph S7.6 kmh S 8.1 mph13.0 kmh 29.09 in985.1 mb 0.00 in0.0 mm 0.00 in0.0 mm 0.00 in0.0 mm
12:55 AM 45.0°F7.2°C 39.2°F4.0°C 79% 4.8 mph S7.7 kmh S 8.7 mph14.0 kmh 29.09 in985.1 mb 0.00 in0.0 mm 0.00 in0.0 mm 0.00 in0.0 mm
01:00 AM 44.6°F7.0°C 39.2°F4.0°C 79% 3.8 mph S6.1 kmh S 8.7 mph14.0 kmh 29.09 in985.1 mb 0.00 in0.0 mm 0.00 in0.0 mm 0.00 in0.0 mm
01:05 AM 44.6°F7.0°C 39.2°F4.0°C 79% 3.4 mph SE5.5 kmh SE 7.2 mph11.6 kmh 29.09 in985.1 mb 0.00 in0.0 mm 0.00 in0.0 mm 0.00 in0.0 mm
01:10 AM 44.6°F7.0°C 39.2°F4.0°C 79% 4.6 mph SE7.4 kmh SE 7.6 mph12.2 kmh 29.09 in985.1 mb 0.00 in0.0 mm 0.00 in0.0 mm 0.00 in0.0 mm
01:15 AM 44.4°F6.9°C 39.2°F4.0°C 79% 4.8 mph S7.7 kmh S 7.6 mph12.2 kmh 29.09 in985.1 mb 0.00 in0.0 mm 0.00 in0.0 mm 0.00 in0.0 mm
01:20 AM 44.2°F6.8°C 39.2°F4.0°C 80% 5.0 mph SSE8.0 kmh SSE 8.5 mph13.7 kmh 29.09 in985.1 mb 0.00 in0.0 mm 0.00 in0.0 mm 0.00 in0.0 mm
01:25 AM 44.1°F6.7°C 39.2°F4.0°C 80% 5.0 mph S8.0 kmh S 8.5 mph13.7 kmh 29.09 in985.1 mb 0.00 in0.0 mm 0.00 in0.0 mm 0.00 in0.0 mm
01:30 AM 44.1°F6.7°C 39.2°F4.0°C 80% 4.8 mph S7.7 kmh S 6.7 mph10.8 kmh 29.09 in985.1 mb 0.00 in0.0 mm 0.00 in0.0 mm 0.00 in0.0 mm
01:35 AM 44.1°F6.7°C 39.2°F4.0°C 80% 4.4 mph S7.1 kmh S 7.2 mph11.6 kmh 29.09 in985.1 mb 0.00 in0.0 mm 0.00 in0.0 mm 0.00 in0.0 mm
01:40 AM 44.1°F6.7°C 39.2°F4.0°C 80% 3.8 mph S6.1 kmh S 7.2 mph11.6 kmh 29.09 in985.1 mb 0.00 in0.0 mm 0.00 in0.0 mm 0.00 in0.0 mm
01:45 AM 44.1°F6.7°C 39.2°F4.0°C 80% 4.1 mph SSE6.6 kmh SSE 8.7 mph14.0 kmh 29.09 in985.1 mb 0.00 in0.0 mm 0.00 in0.0 mm 0.00 in0.0 mm
01:50 AM 44.1°F6.7°C 39.2°F4.0°C 80% 4.1 mph S6.6 kmh S 8.7 mph14.0 kmh 29.09 in985.1 mb 0.00 in0.0 mm 0.00 in0.0 mm 0.00 in0.0 mm
01:55 AM 43.9°F6.6°C 39.2°F4.0°C 80% 4.3 mph S6.9 kmh S 6.0 mph9.7 kmh 29.09 in985.1 mb 0.00 in0.0 mm 0.00 in0.0 mm 0.00 in0.0 mm
02:00 AM 43.9°F6.6°C 39.2°F4.0°C 80% 4.1 mph SSE6.6 kmh SSE 9.2 mph14.8 kmh 29.09 in985.1 mb 0.00 in0.0 mm 0.00 in0.0 mm 0.00 in0.0 mm
02:05 AM 43.7°F6.5°C 39.2°F4.0°C 80% 3.4 mph SSE5.5 kmh SSE 9.2 mph14.8 kmh 29.09 in985.1 mb 0.00 in0.0 mm 0.00 in0.0 mm 0.00 in0.0 mm
02:10 AM 43.7°F6.5°C 39.2°F4.0°C 80% 3.1 mph SSE5.0 kmh SSE 6.3 mph10.1 kmh 29.09 in985.1 mb 0.00 in0.0 mm 0.00 in0.0 mm 0.00 in0.0 mm
02:15 AM 43.7°F6.5°C 39.2°F4.0°C 80% 3.6 mph SSE5.8 kmh SSE 6.3 mph10.1 kmh 29.09 in985.1 mb 0.00 in0.0 mm 0.00 in0.0 mm 0.00 in0.0 mm
02:20 AM 43.7°F6.5°C 39.2°F4.0°C 80% 4.2 mph S6.8 kmh S 6.0 mph9.7 kmh 29.09 in985.1 mb 0.00 in0.0 mm 0.00 in0.0 mm 0.00 in0.0 mm
02:25 AM 43.7°F6.5°C 39.2°F4.0°C 80% 4.4 mph SSE7.1 kmh SSE 7.8 mph12.6 kmh 29.09 in985.1 mb 0.00 in0.0 mm 0.00 in0.0 mm 0.00 in0.0 mm
02:30 AM 43.5°F6.4°C 37.4°F3.0°C 81% 3.2 mph SE5.1 kmh SE 7.8 mph12.6 kmh 29.09 in985.1 mb 0.00 in0.0 mm 0.00 in0.0 mm 0.00 in0.0 mm
02:35 AM 43.5°F6.4°C 37.4°F3.0°C 81% 2.1 mph SSE3.4 kmh SSE 4.0 mph6.4 kmh 29.09 in985.1 mb 0.00 in0.0 mm 0.00 in0.0 mm 0.00 in0.0 mm
02:40 AM 43.3°F6.3°C 37.4°F3.0°C 81% 2.0 mph S3.2 kmh S 4.3 mph6.9 kmh 29.09 in985.1 mb 0.00 in0.0 mm 0.00 in0.0 mm 0.00 in0.0 mm
02:45 AM 43.3°F6.3°C 37.4°F3.0°C 81% 2.5 mph SSE4.0 kmh SSE 4.3 mph6.9 kmh 29.09 in985.1 mb 0.00 in0.0 mm 0.00 in0.0 mm 0.00 in0.0 mm
02:50 AM 43.2°F6.2°C 37.4°F3.0°C 81% 3.0 mph SSE4.8 kmh SSE 5.8 mph9.3 kmh 29.09 in985.1 mb 0.00 in0.0 mm 0.00 in0.0 mm 0.00 in0.0 mm
02:55 AM 43.2°F6.2°C 37.4°F3.0°C 81% 3.2 mph SSE5.1 kmh SSE 5.8 mph9.3 kmh 29.06 in984.1 mb 0.00 in0.0 mm 0.00 in0.0 mm 0.00 in0.0 mm
03:00 AM 43.0°F6.1°C 37.4°F3.0°C 81% 2.6 mph S4.2 kmh S 4.9 mph7.9 kmh 29.06 in984.1 mb 0.00 in0.0 mm 0.00 in0.0 mm 0.00 in0.0 mm
03:05 AM 43.0°F6.1°C 37.4°F3.0°C 81% 2.4 mph S3.9 kmh S 4.9 mph7.9 kmh 29.06 in984.1 mb 0.00 in0.0 mm 0.00 in0.0 mm 0.00 in0.0 mm
03:10 AM 43.0°F6.1°C 37.4°F3.0°C 81% 2.8 mph SSE4.5 kmh SSE 4.9 mph7.9 kmh 29.06 in984.1 mb 0.00 in0.0 mm 0.00 in0.0 mm 0.00 in0.0 mm
03:15 AM 42.8°F6.0°C 37.4°F3.0°C 81% 1.9 mph SE3.1 kmh SE 4.9 mph7.9 kmh 29.06 in984.1 mb 0.00 in0.0 mm 0.00 in0.0 mm 0.00 in0.0 mm
03:20 AM 42.6°F5.9°C 37.4°F3.0°C 81% 1.2 mph SE1.9 kmh SE 4.3 mph6.9 kmh 29.06 in984.1 mb 0.00 in0.0 mm 0.00 in0.0 mm 0.00 in0.0 mm
03:25 AM 42.6°F5.9°C 37.4°F3.0°C 81% 1.5 mph S2.4 kmh S 4.3 mph6.9 kmh 29.06 in984.1 mb 0.00 in0.0 mm 0.00 in0.0 mm 0.00 in0.0 mm
03:30 AM 42.6°F5.9°C 37.4°F3.0°C 81% 1.3 mph SSE2.1 kmh SSE 7.6 mph12.2 kmh 29.06 in984.1 mb 0.00 in0.0 mm 0.00 in0.0 mm 0.00 in0.0 mm
03:35 AM 42.8°F6.0°C 37.4°F3.0°C 82% 1.9 mph SE3.1 kmh SE 7.6 mph12.2 kmh 29.06 in984.1 mb 0.00 in0.0 mm 0.00 in0.0 mm 0.00 in0.0 mm
03:40 AM 42.6°F5.9°C 37.4°F3.0°C 81% 1.6 mph ESE2.6 kmh ESE 3.6 mph5.8 kmh 29.06 in984.1 mb 0.00 in0.0 mm 0.00 in0.0 mm 0.00 in0.0 mm
03:45 AM 42.6°F5.9°C 37.4°F3.0°C 82% 1.5 mph ESE2.4 kmh ESE 5.8 mph9.3 kmh 29.06 in984.1 mb 0.00 in0.0 mm 0.00 in0.0 mm 0.00 in0.0 mm
03:50 AM 42.6°F5.9°C 37.4°F3.0°C 82% 1.6 mph SE2.6 kmh SE 5.8 mph9.3 kmh 29.06 in984.1 mb 0.00 in0.0 mm 0.00 in0.0 mm 0.00 in0.0 mm
03:55 AM 42.4°F5.8°C 37.4°F3.0°C 82% 1.3 mph SSE2.1 kmh SSE 5.4 mph8.7 kmh 29.06 in984.1 mb 0.00 in0.0 mm 0.00 in0.0 mm 0.00 in0.0 mm
04:00 AM 42.4°F5.8°C 37.4°F3.0°C 82% 2.1 mph S3.4 kmh S 5.8 mph9.3 kmh 29.06 in984.1 mb 0.00 in0.0 mm 0.00 in0.0 mm 0.00 in0.0 mm
04:05 AM 42.4°F5.8°C 37.4°F3.0°C 82% 2.8 mph S4.5 kmh S 5.8 mph9.3 kmh 29.06 in984.1 mb 0.00 in0.0 mm 0.00 in0.0 mm 0.00 in0.0 mm
04:10 AM 42.4°F5.8°C 37.4°F3.0°C 82% 2.7 mph SSE4.3 kmh SSE 4.9 mph7.9 kmh 29.06 in984.1 mb 0.00 in0.0 mm 0.00 in0.0 mm 0.00 in0.0 mm
04:15 AM 42.4°F5.8°C 37.4°F3.0°C 82% 3.7 mph S6.0 kmh S 7.2 mph11.6 kmh 29.06 in984.1 mb 0.00 in0.0 mm 0.00 in0.0 mm 0.00 in0.0 mm
04:20 AM 42.6°F5.9°C 37.4°F3.0°C 82% 4.0 mph SSE6.4 kmh SSE 7.2 mph11.6 kmh 29.06 in984.1 mb 0.00 in0.0 mm 0.00 in0.0 mm 0.00 in0.0 mm
04:25 AM 42.6°F5.9°C 37.4°F3.0°C 82% 3.2 mph S5.1 kmh S 6.5 mph10.5 kmh 29.06 in984.1 mb 0.00 in0.0 mm 0.00 in0.0 mm 0.00 in0.0 mm
04:30 AM 42.6°F5.9°C 37.4°F3.0°C 82% 2.9 mph S4.7 kmh S 6.5 mph10.5 kmh 29.06 in984.1 mb 0.00 in0.0 mm 0.00 in0.0 mm 0.00 in0.0 mm
04:35 AM 42.6°F5.9°C 37.4°F3.0°C 82% 3.5 mph S5.6 kmh S 4.7 mph7.6 kmh 29.06 in984.1 mb 0.00 in0.0 mm 0.00 in0.0 mm 0.00 in0.0 mm
04:40 AM 42.8°F6.0°C 37.4°F3.0°C 82% 3.2 mph S5.1 kmh S 6.0 mph9.7 kmh 29.06 in984.1 mb 0.00 in0.0 mm 0.00 in0.0 mm 0.00 in0.0 mm
04:45 AM 42.8°F6.0°C 37.4°F3.0°C 82% 3.1 mph SSE5.0 kmh SSE 6.3 mph10.1 kmh 29.06 in984.1 mb 0.00 in0.0 mm 0.00 in0.0 mm 0.00 in0.0 mm
04:50 AM 42.8°F6.0°C 37.4°F3.0°C 82% 3.4 mph SSE5.5 kmh SSE 6.3 mph10.1 kmh 29.06 in984.1 mb 0.00 in0.0 mm 0.00 in0.0 mm 0.00 in0.0 mm
04:55 AM 42.6°F5.9°C 37.4°F3.0°C 82% 3.0 mph SSE4.8 kmh SSE 7.2 mph11.6 kmh 29.06 in984.1 mb 0.00 in0.0 mm 0.00 in0.0 mm 0.00 in0.0 mm
05:00 AM 42.6°F5.9°C 37.4°F3.0°C 82% 2.3 mph S3.7 kmh S 7.2 mph11.6 kmh 29.06 in984.1 mb 0.00 in0.0 mm 0.00 in0.0 mm 0.00 in0.0 mm
05:05 AM 42.4°F5.8°C 37.4°F3.0°C 82% 2.8 mph S4.5 kmh S 6.0 mph9.7 kmh 29.06 in984.1 mb 0.00 in0.0 mm 0.00 in0.0 mm 0.00 in0.0 mm
05:10 AM 42.6°F5.9°C 37.4°F3.0°C 82% 3.8 mph S6.1 kmh S 9.8 mph15.8 kmh 29.03 in983.1 mb 0.00 in0.0 mm 0.00 in0.0 mm 0.00 in0.0 mm
05:15 AM 42.4°F5.8°C 37.4°F3.0°C 83% 4.0 mph S6.4 kmh S 9.8 mph15.8 kmh 29.03 in983.1 mb 0.00 in0.0 mm 0.00 in0.0 mm 0.00 in0.0 mm
05:20 AM 42.4°F5.8°C 37.4°F3.0°C 83% 3.2 mph S5.1 kmh S 7.2 mph11.6 kmh 29.03 in983.1 mb 0.00 in0.0 mm 0.00 in0.0 mm 0.00 in0.0 mm
05:25 AM 42.3°F5.7°C 37.4°F3.0°C 83% 2.6 mph S4.2 kmh S 7.2 mph11.6 kmh 29.00 in982.1 mb 0.00 in0.0 mm 0.00 in0.0 mm 0.00 in0.0 mm
05:30 AM 42.3°F5.7°C 37.4°F3.0°C 83% 2.3 mph S3.7 kmh S 4.3 mph6.9 kmh 29.00 in982.1 mb 0.00 in0.0 mm 0.00 in0.0 mm 0.00 in0.0 mm
05:35 AM 42.3°F5.7°C 37.4°F3.0°C 83% 2.1 mph S3.4 kmh S 3.8 mph6.1 kmh 29.00 in982.1 mb 0.00 in0.0 mm 0.00 in0.0 mm 0.00 in0.0 mm
05:40 AM 42.3°F5.7°C 37.4°F3.0°C 83% 1.6 mph SSE2.6 kmh SSE 3.1 mph5.0 kmh 29.03 in983.1 mb 0.00 in0.0 mm 0.00 in0.0 mm 0.00 in0.0 mm
05:45 AM 42.3°F5.7°C 37.4°F3.0°C 83% 1.7 mph SSE2.7 kmh SSE 3.6 mph5.8 kmh 29.03 in983.1 mb 0.00 in0.0 mm 0.00 in0.0 mm 0.00 in0.0 mm
05:50 AM 42.1°F5.6°C 37.4°F3.0°C 83% 1.8 mph SSE2.9 kmh SSE 3.6 mph5.8 kmh 29.03 in983.1 mb 0.00 in0.0 mm 0.00 in0.0 mm 0.00 in0.0 mm
05:55 AM 42.1°F5.6°C 37.4°F3.0°C 83% 1.6 mph SSE2.6 kmh SSE 3.6 mph5.8 kmh 29.06 in984.1 mb 0.00 in0.0 mm 0.00 in0.0 mm 0.00 in0.0 mm
06:00 AM 42.1°F5.6°C 37.4°F3.0°C 83% 2.1 mph SE3.4 kmh SE 4.0 mph6.4 kmh 29.06 in984.1 mb 0.00 in0.0 mm 0.00 in0.0 mm 0.00 in0.0 mm
06:05 AM 41.9°F5.5°C 37.4°F3.0°C 83% 2.3 mph SE3.7 kmh SE 4.0 mph6.4 kmh 29.06 in984.1 mb 0.00 in0.0 mm 0.00 in0.0 mm 0.00 in0.0 mm
06:10 AM 41.9°F5.5°C 37.4°F3.0°C 83% 1.8 mph SE2.9 kmh SE 3.4 mph5.5 kmh 29.03 in983.1 mb 0.00 in0.0 mm 0.00 in0.0 mm 0.00 in0.0 mm
06:15 AM 41.7°F5.4°C 37.4°F3.0°C 83% 2.3 mph SE3.7 kmh SE 4.5 mph7.2 kmh 29.03 in983.1 mb 0.00 in0.0 mm 0.00 in0.0 mm 0.00 in0.0 mm
06:20 AM 41.7°F5.4°C 37.4°F3.0°C 83% 2.2 mph SE3.5 kmh SE 4.5 mph7.2 kmh 29.03 in983.1 mb 0.00 in0.0 mm 0.00 in0.0 mm 0.00 in0.0 mm
06:25 AM 41.7°F5.4°C 37.4°F3.0°C 83% 1.5 mph SSE2.4 kmh SSE 4.3 mph6.9 kmh 29.03 in983.1 mb 0.00 in0.0 mm 0.00 in0.0 mm 0.00 in0.0 mm
06:30 AM 41.9°F5.5°C 37.4°F3.0°C 83% 1.8 mph SSE2.9 kmh SSE 4.3 mph6.9 kmh 29.03 in983.1 mb 0.00 in0.0 mm 0.00 in0.0 mm 0.00 in0.0 mm
06:35 AM 42.1°F5.6°C 37.4°F3.0°C 83% 2.6 mph SE4.2 kmh SE 4.7 mph7.6 kmh 29.03 in983.1 mb 0.00 in0.0 mm 0.00 in0.0 mm 0.00 in0.0 mm
06:40 AM 42.1°F5.6°C 37.4°F3.0°C 83% 3.4 mph S5.5 kmh S 6.5 mph10.5 kmh 29.03 in983.1 mb 0.00 in0.0 mm 0.00 in0.0 mm 0.00 in0.0 mm
06:45 AM 42.3°F5.7°C 37.4°F3.0°C 83% 4.7 mph S7.6 kmh S 8.7 mph14.0 kmh 29.03 in983.1 mb 0.00 in0.0 mm 0.00 in0.0 mm 0.00 in0.0 mm
06:50 AM 42.3°F5.7°C 37.4°F3.0°C 83% 4.1 mph S6.6 kmh S 8.7 mph14.0 kmh 29.03 in983.1 mb 0.00 in0.0 mm 0.00 in0.0 mm 0.00 in0.0 mm
06:55 AM 42.3°F5.7°C 37.4°F3.0°C 83% 4.1 mph S6.6 kmh S 7.8 mph12.6 kmh 29.00 in982.1 mb 0.00 in0.0 mm 0.00 in0.0 mm 0.00 in0.0 mm
07:00 AM 42.3°F5.7°C 37.4°F3.0°C 83% 4.7 mph S7.6 kmh S 7.8 mph12.6 kmh 29.00 in982.1 mb 0.00 in0.0 mm 0.00 in0.0 mm 0.00 in0.0 mm
07:05 AM 42.3°F5.7°C 37.4°F3.0°C 83% 3.9 mph S6.3 kmh S 5.8 mph9.3 kmh 29.00 in982.1 mb 0.00 in0.0 mm 0.00 in0.0 mm 0.00 in0.0 mm
07:10 AM 42.3°F5.7°C 37.4°F3.0°C 83% 5.1 mph S8.2 kmh S 9.6 mph15.4 kmh 29.03 in983.1 mb 0.00 in0.0 mm 0.00 in0.0 mm 0.00 in0.0 mm
07:15 AM 42.1°F5.6°C 37.4°F3.0°C 83% 6.2 mph S10.0 kmh S 11.0 mph17.7 kmh 29.03 in983.1 mb 0.00 in0.0 mm 0.00 in0.0 mm 0.00 in0.0 mm
07:20 AM 42.1°F5.6°C 37.4°F3.0°C 83% 5.0 mph S8.0 kmh S 11.0 mph17.7 kmh 29.03 in983.1 mb 0.00 in0.0 mm 0.00 in0.0 mm 0.00 in0.0 mm
07:25 AM 42.1°F5.6°C 37.4°F3.0°C 83% 4.0 mph SSE6.4 kmh SSE 6.0 mph9.7 kmh 29.03 in983.1 mb 0.00 in0.0 mm 0.00 in0.0 mm 0.00 in0.0 mm
07:30 AM 42.3°F5.7°C 37.4°F3.0°C 83% 4.2 mph SSE6.8 kmh SSE 7.8 mph12.6 kmh 29.03 in983.1 mb 0.00 in0.0 mm 0.00 in0.0 mm 0.00 in0.0 mm
07:35 AM 42.1°F5.6°C 37.4°F3.0°C 83% 3.8 mph SSE6.1 kmh SSE 7.8 mph12.6 kmh 29.03 in983.1 mb 0.00 in0.0 mm 0.00 in0.0 mm 0.00 in0.0 mm
07:40 AM 42.1°F5.6°C 37.4°F3.0°C 83% 3.3 mph SSE5.3 kmh SSE 4.9 mph7.9 kmh 29.03 in983.1 mb 0.00 in0.0 mm 0.00 in0.0 mm 0.00 in0.0 mm
07:45 AM 42.3°F5.7°C 37.4°F3.0°C 83% 4.3 mph SSE6.9 kmh SSE 9.8 mph15.8 kmh 29.03 in983.1 mb 0.00 in0.0 mm 0.00 in0.0 mm 0.00 in0.0 mm
07:50 AM 42.3°F5.7°C 37.4°F3.0°C 83% 4.2 mph SSE6.8 kmh SSE 9.8 mph15.8 kmh 29.03 in983.1 mb 0.00 in0.0 mm 0.00 in0.0 mm 0.00 in0.0 mm
07:55 AM 42.3°F5.7°C 37.4°F3.0°C 83% 4.4 mph SSE7.1 kmh SSE 9.8 mph15.8 kmh 29.03 in983.1 mb 0.00 in0.0 mm 0.00 in0.0 mm 0.00 in0.0 mm
08:00 AM 42.3°F5.7°C 37.4°F3.0°C 83% 4.8 mph S7.7 kmh S 8.5 mph13.7 kmh 29.03 in983.1 mb 0.00 in0.0 mm 0.00 in0.0 mm 0.00 in0.0 mm
08:05 AM 42.4°F5.8°C 37.4°F3.0°C 83% 4.6 mph S7.4 kmh S 6.5 mph10.5 kmh 29.03 in983.1 mb 0.00 in0.0 mm 0.00 in0.0 mm 0.00 in0.0 mm
08:10 AM 42.6°F5.9°C 37.4°F3.0°C 83% 3.6 mph SSE5.8 kmh SSE 6.5 mph10.5 kmh 29.03 in983.1 mb 0.00 in0.0 mm 0.00 in0.0 mm 0.00 in0.0 mm
08:15 AM 42.6°F5.9°C 37.4°F3.0°C 83% 2.7 mph SSE4.3 kmh SSE 4.9 mph7.9 kmh 29.03 in983.1 mb 0.00 in0.0 mm 0.00 in0.0 mm 0.00 in0.0 mm
08:20 AM 42.6°F5.9°C 37.4°F3.0°C 83% 2.5 mph SSE4.0 kmh SSE 3.8 mph6.1 kmh 29.03 in983.1 mb 0.00 in0.0 mm 0.00 in0.0 mm 0.00 in0.0 mm
08:25 AM 42.8°F6.0°C 37.4°F3.0°C 83% 2.1 mph SSE3.4 kmh SSE 4.3 mph6.9 kmh 29.03 in983.1 mb 0.00 in0.0 mm 0.00 in0.0 mm 0.00 in0.0 mm
08:30 AM 42.8°F6.0°C 37.4°F3.0°C 83% 2.3 mph SSE3.7 kmh SSE 6.3 mph10.1 kmh 29.03 in983.1 mb 0.00 in0.0 mm 0.00 in0.0 mm 0.00 in0.0 mm
08:35 AM 43.2°F6.2°C 39.2°F4.0°C 83% 2.6 mph S4.2 kmh S 6.3 mph10.1 kmh 29.03 in983.1 mb 0.00 in0.0 mm 0.00 in0.0 mm 0.00 in0.0 mm
08:40 AM 43.5°F6.4°C 39.2°F4.0°C 83% 2.8 mph S4.5 kmh S 4.7 mph7.6 kmh 29.06 in984.1 mb 0.00 in0.0 mm 0.00 in0.0 mm 0.00 in0.0 mm
08:45 AM 43.7°F6.5°C 39.2°F4.0°C 83% 2.7 mph SSE4.3 kmh SSE 3.4 mph5.5 kmh 29.06 in984.1 mb 0.00 in0.0 mm 0.00 in0.0 mm 0.00 in0.0 mm
08:50 AM 44.1°F6.7°C 39.2°F4.0°C 83% 2.1 mph SSE3.4 kmh SSE 3.1 mph5.0 kmh 29.06 in984.1 mb 0.00 in0.0 mm 0.00 in0.0 mm 0.00 in0.0 mm
08:55 AM 44.4°F6.9°C 39.2°F4.0°C 83% 2.1 mph S3.4 kmh S 5.6 mph9.0 kmh 29.03 in983.1 mb 0.00 in0.0 mm 0.00 in0.0 mm 0.00 in0.0 mm
09:00 AM 44.8°F7.1°C 39.2°F4.0°C 82% 2.1 mph SSE3.4 kmh SSE 5.6 mph9.0 kmh 29.03 in983.1 mb 0.00 in0.0 mm 0.00 in0.0 mm 0.00 in0.0 mm
09:10 AM 45.3°F7.4°C 39.2°F4.0°C 81% 4.0 mph SSE6.4 kmh SSE 7.8 mph12.6 kmh 29.03 in983.1 mb 0.00 in0.0 mm 0.00 in0.0 mm 0.00 in0.0 mm
09:15 AM 45.5°F7.5°C 41.0°F5.0°C 81% 5.7 mph S9.2 kmh S 7.8 mph12.6 kmh 29.03 in983.1 mb 0.00 in0.0 mm 0.00 in0.0 mm 0.00 in0.0 mm
09:20 AM 45.5°F7.5°C 41.0°F5.0°C 81% 5.6 mph S9.0 kmh S 8.7 mph14.0 kmh 29.03 in983.1 mb 0.00 in0.0 mm 0.00 in0.0 mm 0.00 in0.0 mm
09:25 AM 45.7°F7.6°C 41.0°F5.0°C 81% 4.2 mph S6.8 kmh S 8.7 mph14.0 kmh 29.06 in984.1 mb 0.00 in0.0 mm 0.00 in0.0 mm 0.00 in0.0 mm
09:30 AM 45.7°F7.6°C 41.0°F5.0°C 81% 3.9 mph S6.3 kmh S 8.7 mph14.0 kmh 29.06 in984.1 mb 0.00 in0.0 mm 0.00 in0.0 mm 0.00 in0.0 mm
09:35 AM 45.7°F7.6°C 41.0°F5.0°C 81% 3.1 mph S5.0 kmh S 5.6 mph9.0 kmh 29.06 in984.1 mb 0.00 in0.0 mm 0.00 in0.0 mm 0.00 in0.0 mm
09:40 AM 46.0°F7.8°C 41.0°F5.0°C 81% 4.3 mph SSW6.9 kmh SSW 11.0 mph17.7 kmh 29.03 in983.1 mb 0.00 in0.0 mm 0.00 in0.0 mm 0.00 in0.0 mm
09:45 AM 46.4°F8.0°C 41.0°F5.0°C 80% 5.5 mph SSW8.9 kmh SSW 11.0 mph17.7 kmh 29.03 in983.1 mb 0.00 in0.0 mm 0.00 in0.0 mm 0.00 in0.0 mm
09:50 AM 46.8°F8.2°C 41.0°F5.0°C 80% 5.3 mph S8.5 kmh S 11.0 mph17.7 kmh 29.03 in983.1 mb 0.00 in0.0 mm 0.00 in0.0 mm 0.00 in0.0 mm
09:55 AM 46.9°F8.3°C 42.8°F6.0°C 80% 4.9 mph S7.9 kmh S 7.8 mph12.6 kmh 29.03 in983.1 mb 0.00 in0.0 mm 0.00 in0.0 mm 0.00 in0.0 mm
10:00 AM 47.1°F8.4°C 42.8°F6.0°C 80% 5.4 mph S8.7 kmh S 12.5 mph20.1 kmh 29.03 in983.1 mb 0.00 in0.0 mm 0.00 in0.0 mm 0.00 in0.0 mm
10:05 AM 47.3°F8.5°C 42.8°F6.0°C 79% 5.3 mph S8.5 kmh S 12.5 mph20.1 kmh 29.03 in983.1 mb 0.00 in0.0 mm 0.00 in0.0 mm 0.00 in0.0 mm
10:10 AM 47.3°F8.5°C 42.8°F6.0°C 79% 4.1 mph SSW6.6 kmh SSW 6.0 mph9.7 kmh 29.06 in984.1 mb 0.00 in0.0 mm 0.00 in0.0 mm 0.00 in0.0 mm
10:15 AM 47.5°F8.6°C 42.8°F6.0°C 79% 3.3 mph SSW5.3 kmh SSW 6.3 mph10.1 kmh 29.06 in984.1 mb 0.00 in0.0 mm 0.00 in0.0 mm 0.00 in0.0 mm
10:20 AM 47.8°F8.8°C 42.8°F6.0°C 79% 2.7 mph S4.3 kmh S 6.3 mph10.1 kmh 29.06 in984.1 mb 0.00 in0.0 mm 0.00 in0.0 mm 0.00 in0.0 mm
10:25 AM 48.2°F9.0°C 42.8°F6.0°C 79% 3.6 mph S5.8 kmh S 8.1 mph13.0 kmh 29.00 in982.1 mb 0.00 in0.0 mm 0.00 in0.0 mm 0.00 in0.0 mm
10:30 AM 48.6°F9.2°C 42.8°F6.0°C 78% 5.5 mph S8.9 kmh S 8.5 mph13.7 kmh 29.00 in982.1 mb 0.00 in0.0 mm 0.00 in0.0 mm 0.00 in0.0 mm
10:35 AM 48.7°F9.3°C 42.8°F6.0°C 78% 5.2 mph SSW8.4 kmh SSW 8.5 mph13.7 kmh 29.00 in982.1 mb 0.00 in0.0 mm 0.00 in0.0 mm 0.00 in0.0 mm
10:40 AM 49.1°F9.5°C 42.8°F6.0°C 78% 3.8 mph S6.1 kmh S 8.5 mph13.7 kmh 29.03 in983.1 mb 0.00 in0.0 mm 0.00 in0.0 mm 0.00 in0.0 mm
10:45 AM 49.1°F9.5°C 42.8°F6.0°C 78% 3.4 mph SSW5.5 kmh SSW 5.4 mph8.7 kmh 29.03 in983.1 mb 0.00 in0.0 mm 0.00 in0.0 mm 0.00 in0.0 mm
10:50 AM 49.1°F9.5°C 42.8°F6.0°C 77% 4.4 mph SSW7.1 kmh SSW 5.8 mph9.3 kmh 29.03 in983.1 mb 0.00 in0.0 mm 0.00 in0.0 mm 0.00 in0.0 mm
10:55 AM 49.3°F9.6°C 42.8°F6.0°C 77% 4.7 mph SSW7.6 kmh SSW 6.3 mph10.1 kmh 29.03 in983.1 mb 0.00 in0.0 mm 0.00 in0.0 mm 0.00 in0.0 mm
11:00 AM 49.5°F9.7°C 42.8°F6.0°C 77% 4.7 mph SSW7.6 kmh SSW 6.3 mph10.1 kmh 29.03 in983.1 mb 0.00 in0.0 mm 0.00 in0.0 mm 0.00 in0.0 mm
11:05 AM 49.5°F9.7°C 42.8°F6.0°C 77% 5.8 mph SSW9.3 kmh SSW 8.9 mph14.3 kmh 29.03 in983.1 mb 0.00 in0.0 mm 0.00 in0.0 mm 0.00 in0.0 mm
11:10 AM 49.3°F9.6°C 42.8°F6.0°C 76% 6.3 mph SSW10.1 kmh SSW 8.9 mph14.3 kmh 29.06 in984.1 mb 0.00 in0.0 mm 0.00 in0.0 mm 0.00 in0.0 mm
11:15 AM 49.3°F9.6°C 42.8°F6.0°C 76% 5.3 mph SSW8.5 kmh SSW 8.5 mph13.7 kmh 29.06 in984.1 mb 0.00 in0.0 mm 0.00 in0.0 mm 0.00 in0.0 mm
11:20 AM 49.1°F9.5°C 42.8°F6.0°C 76% 5.8 mph SW9.3 kmh SW 8.5 mph13.7 kmh 29.06 in984.1 mb 0.00 in0.0 mm 0.00 in0.0 mm 0.00 in0.0 mm
11:25 AM 49.1°F9.5°C 42.8°F6.0°C 76% 6.1 mph SSW9.8 kmh SSW 8.5 mph13.7 kmh 29.03 in983.1 mb 0.00 in0.0 mm 0.00 in0.0 mm 0.00 in0.0 mm
11:30 AM 49.1°F9.5°C 42.8°F6.0°C 76% 5.9 mph SSW9.5 kmh SSW 8.5 mph13.7 kmh 29.03 in983.1 mb 0.00 in0.0 mm 0.00 in0.0 mm 0.00 in0.0 mm
11:35 AM 49.1°F9.5°C 42.8°F6.0°C 76% 5.8 mph SSW9.3 kmh SSW 8.5 mph13.7 kmh 29.03 in983.1 mb 0.00 in0.0 mm 0.00 in0.0 mm 0.00 in0.0 mm
11:40 AM 49.5°F9.7°C 42.8°F6.0°C 76% 5.6 mph SSW9.0 kmh SSW 8.5 mph13.7 kmh 29.06 in984.1 mb 0.00 in0.0 mm 0.00 in0.0 mm 0.00 in0.0 mm
11:45 AM 49.6°F9.8°C 42.8°F6.0°C 76% 6.1 mph SSW9.8 kmh SSW 8.5 mph13.7 kmh 29.06 in984.1 mb 0.00 in0.0 mm 0.00 in0.0 mm 0.00 in0.0 mm
11:50 AM 49.8°F9.9°C 42.8°F6.0°C 74% 6.9 mph SSW11.1 kmh SSW 10.1 mph16.3 kmh 29.06 in984.1 mb 0.00 in0.0 mm 0.00 in0.0 mm 0.00 in0.0 mm
11:55 AM 50.0°F10.0°C 42.8°F6.0°C 74% 7.7 mph SW12.4 kmh SW 10.1 mph16.3 kmh 29.06 in984.1 mb 0.00 in0.0 mm 0.00 in0.0 mm 0.00 in0.0 mm
12:00 PM 50.4°F10.2°C 42.8°F6.0°C 73% 7.2 mph WSW11.6 kmh WSW 9.8 mph15.8 kmh 29.06 in984.1 mb 0.00 in0.0 mm 0.00 in0.0 mm 0.00 in0.0 mm
12:05 PM 50.5°F10.3°C 42.8°F6.0°C 73% 6.1 mph WSW9.8 kmh WSW 9.4 mph15.1 kmh 29.06 in984.1 mb 0.00 in0.0 mm 0.00 in0.0 mm 0.00 in0.0 mm
12:10 PM 50.7°F10.4°C 41.0°F5.0°C 70% 6.8 mph SW10.9 kmh SW 9.8 mph15.8 kmh 29.06 in984.1 mb 0.00 in0.0 mm 0.00 in0.0 mm 0.00 in0.0 mm
12:15 PM 50.9°F10.5°C 42.8°F6.0°C 70% 7.8 mph SW12.6 kmh SW 13.2 mph21.2 kmh 29.06 in984.1 mb 0.00 in0.0 mm 0.00 in0.0 mm 0.00 in0.0 mm
12:20 PM 51.3°F10.7°C 41.0°F5.0°C 69% 6.6 mph SW10.6 kmh SW 13.2 mph21.2 kmh 29.06 in984.1 mb 0.00 in0.0 mm 0.00 in0.0 mm 0.00 in0.0 mm
12:25 PM 51.4°F10.8°C 42.8°F6.0°C 70% 5.2 mph SW8.4 kmh SW 13.2 mph21.2 kmh 29.03 in983.1 mb 0.00 in0.0 mm 0.00 in0.0 mm 0.00 in0.0 mm
12:30 PM 51.1°F10.6°C 41.0°F5.0°C 69% 5.0 mph SW8.0 kmh SW 8.7 mph14.0 kmh 29.03 in983.1 mb 0.00 in0.0 mm 0.00 in0.0 mm 0.00 in0.0 mm
12:35 PM 51.1°F10.6°C 41.0°F5.0°C 69% 5.9 mph SSW9.5 kmh SSW 8.7 mph14.0 kmh 29.03 in983.1 mb 0.00 in0.0 mm 0.00 in0.0 mm 0.00 in0.0 mm
12:40 PM 51.3°F10.7°C 41.0°F5.0°C 69% 5.8 mph SW9.3 kmh SW 8.7 mph14.0 kmh 29.06 in984.1 mb 0.00 in0.0 mm 0.00 in0.0 mm 0.00 in0.0 mm
12:45 PM 51.4°F10.8°C 41.0°F5.0°C 68% 5.0 mph SW8.0 kmh SW 9.8 mph15.8 kmh 29.06 in984.1 mb 0.00 in0.0 mm 0.00 in0.0 mm 0.00 in0.0 mm
12:50 PM 51.6°F10.9°C 42.8°F6.0°C 68% 5.4 mph SW8.7 kmh SW 9.8 mph15.8 kmh 29.06 in984.1 mb 0.00 in0.0 mm 0.00 in0.0 mm 0.00 in0.0 mm
12:55 PM 51.8°F11.0°C 42.8°F6.0°C 68% 6.1 mph SW9.8 kmh SW 10.5 mph16.9 kmh 29.03 in983.1 mb 0.00 in0.0 mm 0.00 in0.0 mm 0.00 in0.0 mm
01:00 PM 52.3°F11.3°C 42.8°F6.0°C 68% 6.6 mph SW10.6 kmh SW 10.5 mph16.9 kmh 29.03 in983.1 mb 0.00 in0.0 mm 0.00 in0.0 mm 0.00 in0.0 mm
01:05 PM 52.3°F11.3°C 42.8°F6.0°C 67% 6.3 mph SW10.1 kmh SW 11.9 mph19.2 kmh 29.03 in983.1 mb 0.00 in0.0 mm 0.00 in0.0 mm 0.00 in0.0 mm
01:10 PM 52.2°F11.2°C 42.8°F6.0°C 67% 6.5 mph SW10.5 kmh SW 11.9 mph19.2 kmh 29.03 in983.1 mb 0.00 in0.0 mm 0.00 in0.0 mm 0.00 in0.0 mm
01:15 PM 52.2°F11.2°C 42.8°F6.0°C 67% 6.2 mph SW10.0 kmh SW 10.3 mph16.6 kmh 29.03 in983.1 mb 0.00 in0.0 mm 0.00 in0.0 mm 0.00 in0.0 mm
01:20 PM 52.3°F11.3°C 41.0°F5.0°C 66% 5.0 mph SW8.0 kmh SW 10.3 mph16.6 kmh 29.03 in983.1 mb 0.00 in0.0 mm 0.00 in0.0 mm 0.00 in0.0 mm
01:25 PM 52.3°F11.3°C 41.0°F5.0°C 66% 3.7 mph SSW6.0 kmh SSW 6.3 mph10.1 kmh 29.00 in982.1 mb 0.00 in0.0 mm 0.00 in0.0 mm 0.00 in0.0 mm
01:30 PM 52.2°F11.2°C 41.0°F5.0°C 66% 3.8 mph SW6.1 kmh SW 7.8 mph12.6 kmh 29.00 in982.1 mb 0.00 in0.0 mm 0.00 in0.0 mm 0.00 in0.0 mm
01:35 PM 51.8°F11.0°C 41.0°F5.0°C 66% 5.6 mph SW9.0 kmh SW 10.3 mph16.6 kmh 29.00 in982.1 mb 0.00 in0.0 mm 0.00 in0.0 mm 0.00 in0.0 mm
01:40 PM 51.8°F11.0°C 41.0°F5.0°C 66% 7.2 mph SSW11.6 kmh SSW 10.7 mph17.2 kmh 29.03 in983.1 mb 0.00 in0.0 mm 0.00 in0.0 mm 0.00 in0.0 mm
01:45 PM 51.6°F10.9°C 41.0°F5.0°C 65% 6.7 mph SSW10.8 kmh SSW 10.7 mph17.2 kmh 29.03 in983.1 mb 0.00 in0.0 mm 0.00 in0.0 mm 0.00 in0.0 mm
01:50 PM 51.4°F10.8°C 41.0°F5.0°C 65% 5.7 mph SW9.2 kmh SW 9.8 mph15.8 kmh 29.03 in983.1 mb 0.00 in0.0 mm 0.00 in0.0 mm 0.00 in0.0 mm
01:55 PM 51.4°F10.8°C 41.0°F5.0°C 65% 5.9 mph SW9.5 kmh SW 9.8 mph15.8 kmh 28.97 in981.0 mb 0.00 in0.0 mm 0.00 in0.0 mm 0.00 in0.0 mm
02:00 PM 51.3°F10.7°C 41.0°F5.0°C 65% 5.7 mph SSW9.2 kmh SSW 8.7 mph14.0 kmh 28.97 in981.0 mb 0.00 in0.0 mm 0.00 in0.0 mm 0.00 in0.0 mm
02:05 PM 51.1°F10.6°C 41.0°F5.0°C 65% 5.2 mph SSW8.4 kmh SSW 13.0 mph20.9 kmh 28.97 in981.0 mb 0.00 in0.0 mm 0.00 in0.0 mm 0.00 in0.0 mm
02:10 PM 51.1°F10.6°C 41.0°F5.0°C 65% 7.0 mph SW11.3 kmh SW 15.4 mph24.8 kmh 29.03 in983.1 mb 0.00 in0.0 mm 0.00 in0.0 mm 0.00 in0.0 mm
02:15 PM 51.3°F10.7°C 41.0°F5.0°C 65% 7.2 mph SW11.6 kmh SW 15.4 mph24.8 kmh 29.03 in983.1 mb 0.00 in0.0 mm 0.00 in0.0 mm 0.00 in0.0 mm
02:20 PM 51.1°F10.6°C 41.0°F5.0°C 65% 6.7 mph SSW10.8 kmh SSW 10.5 mph16.9 kmh 29.03 in983.1 mb 0.00 in0.0 mm 0.00 in0.0 mm 0.00 in0.0 mm
02:25 PM 51.1°F10.6°C 39.2°F4.0°C 64% 7.3 mph SW11.7 kmh SW 10.5 mph16.9 kmh 29.03 in983.1 mb 0.00 in0.0 mm 0.00 in0.0 mm 0.00 in0.0 mm
02:30 PM 51.1°F10.6°C 39.2°F4.0°C 63% 6.0 mph SW9.7 kmh SW 9.8 mph15.8 kmh 29.03 in983.1 mb 0.00 in0.0 mm 0.00 in0.0 mm 0.00 in0.0 mm
02:35 PM 51.1°F10.6°C 39.2°F4.0°C 62% 5.5 mph SW8.9 kmh SW 7.4 mph11.9 kmh 29.03 in983.1 mb 0.00 in0.0 mm 0.00 in0.0 mm 0.00 in0.0 mm
02:40 PM 51.1°F10.6°C 39.2°F4.0°C 62% 5.9 mph WSW9.5 kmh WSW 8.7 mph14.0 kmh 29.03 in983.1 mb 0.00 in0.0 mm 0.00 in0.0 mm 0.00 in0.0 mm
02:45 PM 50.9°F10.5°C 39.2°F4.0°C 62% 6.4 mph SW10.3 kmh SW 10.3 mph16.6 kmh 29.03 in983.1 mb 0.00 in0.0 mm 0.00 in0.0 mm 0.00 in0.0 mm
02:50 PM 50.5°F10.3°C 37.4°F3.0°C 62% 7.1 mph SW11.4 kmh SW 10.3 mph16.6 kmh 29.03 in983.1 mb 0.00 in0.0 mm 0.00 in0.0 mm 0.00 in0.0 mm
02:55 PM 50.4°F10.2°C 37.4°F3.0°C 61% 5.7 mph SW9.2 kmh SW 9.2 mph14.8 kmh 29.03 in983.1 mb 0.00 in0.0 mm 0.00 in0.0 mm 0.00 in0.0 mm
03:00 PM 50.4°F10.2°C 37.4°F3.0°C 62% 5.6 mph SW9.0 kmh SW 8.5 mph13.7 kmh 29.03 in983.1 mb 0.00 in0.0 mm 0.00 in0.0 mm 0.00 in0.0 mm
03:05 PM 50.2°F10.1°C 37.4°F3.0°C 61% 6.7 mph WSW10.8 kmh WSW 12.8 mph20.6 kmh 29.03 in983.1 mb 0.00 in0.0 mm 0.00 in0.0 mm 0.00 in0.0 mm
03:10 PM 50.2°F10.1°C 37.4°F3.0°C 61% 6.3 mph WSW10.1 kmh WSW 12.8 mph20.6 kmh 28.97 in981.0 mb 0.00 in0.0 mm 0.00 in0.0 mm 0.00 in0.0 mm
03:15 PM 50.2°F10.1°C 37.4°F3.0°C 61% 4.5 mph WSW7.2 kmh WSW 7.4 mph11.9 kmh 28.97 in981.0 mb 0.00 in0.0 mm 0.00 in0.0 mm 0.00 in0.0 mm
03:20 PM 50.2°F10.1°C 37.4°F3.0°C 61% 4.2 mph WSW6.8 kmh WSW 7.4 mph11.9 kmh 28.97 in981.0 mb 0.00 in0.0 mm 0.00 in0.0 mm 0.00 in0.0 mm
03:25 PM 50.0°F10.0°C 37.4°F3.0°C 61% 3.5 mph WSW5.6 kmh WSW 6.9 mph11.1 kmh 28.97 in981.0 mb 0.00 in0.0 mm 0.00 in0.0 mm 0.00 in0.0 mm
03:30 PM 50.0°F10.0°C 37.4°F3.0°C 61% 3.5 mph SW5.6 kmh SW 6.9 mph11.1 kmh 28.97 in981.0 mb 0.00 in0.0 mm 0.00 in0.0 mm 0.00 in0.0 mm
03:35 PM 50.0°F10.0°C 37.4°F3.0°C 61% 2.9 mph SW4.7 kmh SW 6.0 mph9.7 kmh 28.97 in981.0 mb 0.00 in0.0 mm 0.00 in0.0 mm 0.00 in0.0 mm
03:40 PM 49.8°F9.9°C 37.4°F3.0°C 62% 2.8 mph SW4.5 kmh SW 6.5 mph10.5 kmh 28.97 in981.0 mb 0.00 in0.0 mm 0.00 in0.0 mm 0.00 in0.0 mm
03:45 PM 49.8°F9.9°C 37.4°F3.0°C 62% 3.6 mph SSW5.8 kmh SSW 6.5 mph10.5 kmh 28.97 in981.0 mb 0.00 in0.0 mm 0.00 in0.0 mm 0.00 in0.0 mm
03:50 PM 50.0°F10.0°C 37.4°F3.0°C 62% 4.5 mph S7.2 kmh S 6.9 mph11.1 kmh 28.97 in981.0 mb 0.00 in0.0 mm 0.00 in0.0 mm 0.00 in0.0 mm
03:55 PM 50.0°F10.0°C 37.4°F3.0°C 62% 5.5 mph SSW8.9 kmh SSW 7.6 mph12.2 kmh 28.97 in981.0 mb 0.00 in0.0 mm 0.00 in0.0 mm 0.00 in0.0 mm
04:00 PM 49.8°F9.9°C 37.4°F3.0°C 63% 6.1 mph SW9.8 kmh SW 8.5 mph13.7 kmh 28.97 in981.0 mb 0.00 in0.0 mm 0.00 in0.0 mm 0.00 in0.0 mm
04:05 PM 49.6°F9.8°C 37.4°F3.0°C 63% 6.5 mph SSW10.5 kmh SSW 10.5 mph16.9 kmh 28.97 in981.0 mb 0.00 in0.0 mm 0.00 in0.0 mm 0.00 in0.0 mm
04:10 PM 49.5°F9.7°C 37.4°F3.0°C 62% 7.7 mph SSW12.4 kmh SSW 11.9 mph19.2 kmh 28.91 in979.0 mb 0.00 in0.0 mm 0.00 in0.0 mm 0.00 in0.0 mm
04:15 PM 49.3°F9.6°C 37.4°F3.0°C 61% 6.2 mph SSW10.0 kmh SSW 11.9 mph19.2 kmh 28.91 in979.0 mb 0.00 in0.0 mm 0.00 in0.0 mm 0.00 in0.0 mm
04:20 PM 49.3°F9.6°C 37.4°F3.0°C 61% 4.8 mph SSW7.7 kmh SSW 8.1 mph13.0 kmh 28.91 in979.0 mb 0.00 in0.0 mm 0.00 in0.0 mm 0.00 in0.0 mm
04:25 PM 49.1°F9.5°C 37.4°F3.0°C 62% 5.9 mph SW9.5 kmh SW 14.3 mph23.0 kmh 28.97 in981.0 mb 0.00 in0.0 mm 0.00 in0.0 mm 0.00 in0.0 mm
04:30 PM 48.9°F9.4°C 37.4°F3.0°C 62% 8.7 mph SW14.0 kmh SW 14.3 mph23.0 kmh 28.97 in981.0 mb 0.00 in0.0 mm 0.00 in0.0 mm 0.00 in0.0 mm
04:35 PM 48.7°F9.3°C 37.4°F3.0°C 62% 9.1 mph SW14.6 kmh SW 14.3 mph23.0 kmh 28.97 in981.0 mb 0.00 in0.0 mm 0.00 in0.0 mm 0.00 in0.0 mm
04:40 PM 48.6°F9.2°C 37.4°F3.0°C 62% 7.3 mph SW11.7 kmh SW 12.3 mph19.8 kmh 28.97 in981.0 mb 0.00 in0.0 mm 0.00 in0.0 mm 0.00 in0.0 mm
04:45 PM 48.4°F9.1°C 35.6°F2.0°C 62% 6.3 mph SW10.1 kmh SW 9.6 mph15.4 kmh 28.97 in981.0 mb 0.00 in0.0 mm 0.00 in0.0 mm 0.00 in0.0 mm
04:50 PM 48.2°F9.0°C 37.4°F3.0°C 63% 6.6 mph SW10.6 kmh SW 8.7 mph14.0 kmh 28.97 in981.0 mb 0.00 in0.0 mm 0.00 in0.0 mm 0.00 in0.0 mm
04:55 PM 48.2°F9.0°C 37.4°F3.0°C 63% 6.9 mph SW11.1 kmh SW 8.7 mph14.0 kmh 28.97 in981.0 mb 0.00 in0.0 mm 0.00 in0.0 mm 0.00 in0.0 mm
05:00 PM 47.8°F8.8°C 37.4°F3.0°C 63% 5.8 mph WSW9.3 kmh WSW 8.7 mph14.0 kmh 28.97 in981.0 mb 0.00 in0.0 mm 0.00 in0.0 mm 0.00 in0.0 mm
05:05 PM 47.5°F8.6°C 37.4°F3.0°C 64% 5.6 mph WSW9.0 kmh WSW 8.7 mph14.0 kmh 28.97 in981.0 mb 0.00 in0.0 mm 0.00 in0.0 mm 0.00 in0.0 mm
05:10 PM 46.9°F8.3°C 35.6°F2.0°C 64% 5.7 mph SW9.2 kmh SW 8.1 mph13.0 kmh 28.97 in981.0 mb 0.00 in0.0 mm 0.00 in0.0 mm 0.00 in0.0 mm
05:15 PM 46.8°F8.2°C 35.6°F2.0°C 65% 5.5 mph SW8.9 kmh SW 9.6 mph15.4 kmh 28.97 in981.0 mb 0.00 in0.0 mm 0.00 in0.0 mm 0.00 in0.0 mm
05:20 PM 46.4°F8.0°C 35.6°F2.0°C 65% 5.3 mph WSW8.5 kmh WSW 11.9 mph19.2 kmh 28.97 in981.0 mb 0.00 in0.0 mm 0.00 in0.0 mm 0.00 in0.0 mm
05:25 PM 46.6°F8.1°C 35.6°F2.0°C 65% 4.9 mph WSW7.9 kmh WSW 11.9 mph19.2 kmh 28.91 in979.0 mb 0.00 in0.0 mm 0.00 in0.0 mm 0.00 in0.0 mm
05:30 PM 46.6°F8.1°C 35.6°F2.0°C 65% 4.3 mph WSW6.9 kmh WSW 7.4 mph11.9 kmh 28.91 in979.0 mb 0.00 in0.0 mm 0.00 in0.0 mm 0.00 in0.0 mm
05:35 PM 46.6°F8.1°C 35.6°F2.0°C 66% 4.3 mph SW6.9 kmh SW 7.4 mph11.9 kmh 28.91 in979.0 mb 0.00 in0.0 mm 0.00 in0.0 mm 0.00 in0.0 mm
05:40 PM 46.6°F8.1°C 35.6°F2.0°C 66% 4.7 mph SW7.6 kmh SW 6.5 mph10.5 kmh 28.97 in981.0 mb 0.00 in0.0 mm 0.00 in0.0 mm 0.00 in0.0 mm
05:45 PM 46.6°F8.1°C 35.6°F2.0°C 66% 4.6 mph SW7.4 kmh SW 7.4 mph11.9 kmh 28.97 in981.0 mb 0.00 in0.0 mm 0.00 in0.0 mm 0.00 in0.0 mm
05:50 PM 46.6°F8.1°C 35.6°F2.0°C 66% 4.7 mph SW7.6 kmh SW 7.4 mph11.9 kmh 28.97 in981.0 mb 0.00 in0.0 mm 0.00 in0.0 mm 0.00 in0.0 mm
05:55 PM 46.6°F8.1°C 35.6°F2.0°C 66% 4.3 mph WSW6.9 kmh WSW 6.5 mph10.5 kmh 28.94 in980.0 mb 0.00 in0.0 mm 0.00 in0.0 mm 0.00 in0.0 mm
06:00 PM 46.6°F8.1°C 35.6°F2.0°C 66% 3.7 mph SW6.0 kmh SW 6.5 mph10.5 kmh 28.94 in980.0 mb 0.00 in0.0 mm 0.00 in0.0 mm 0.00 in0.0 mm
06:05 PM 46.6°F8.1°C 37.4°F3.0°C 67% 5.2 mph SW8.4 kmh SW 9.8 mph15.8 kmh 28.94 in980.0 mb 0.00 in0.0 mm 0.00 in0.0 mm 0.00 in0.0 mm
06:10 PM 46.6°F8.1°C 37.4°F3.0°C 67% 5.3 mph SW8.5 kmh SW 9.8 mph15.8 kmh 28.97 in981.0 mb 0.00 in0.0 mm 0.00 in0.0 mm 0.00 in0.0 mm
06:15 PM 46.4°F8.0°C 37.4°F3.0°C 67% 4.3 mph SW6.9 kmh SW 7.8 mph12.6 kmh 28.97 in981.0 mb 0.00 in0.0 mm 0.00 in0.0 mm 0.00 in0.0 mm
06:20 PM 46.4°F8.0°C 37.4°F3.0°C 67% 5.8 mph SW9.3 kmh SW 7.8 mph12.6 kmh 28.97 in981.0 mb 0.00 in0.0 mm 0.00 in0.0 mm 0.00 in0.0 mm
06:25 PM 46.4°F8.0°C 37.4°F3.0°C 67% 6.4 mph SW10.3 kmh SW 8.1 mph13.0 kmh 28.97 in981.0 mb 0.00 in0.0 mm 0.00 in0.0 mm 0.00 in0.0 mm
06:30 PM 46.4°F8.0°C 37.4°F3.0°C 67% 5.6 mph WSW9.0 kmh WSW 8.1 mph13.0 kmh 28.97 in981.0 mb 0.00 in0.0 mm 0.00 in0.0 mm 0.00 in0.0 mm
06:35 PM 46.4°F8.0°C 37.4°F3.0°C 67% 5.2 mph WSW8.4 kmh WSW 7.8 mph12.6 kmh 28.97 in981.0 mb 0.00 in0.0 mm 0.00 in0.0 mm 0.00 in0.0 mm
06:40 PM 46.4°F8.0°C 37.4°F3.0°C 68% 5.1 mph SW8.2 kmh SW 7.8 mph12.6 kmh 28.97 in981.0 mb 0.00 in0.0 mm 0.00 in0.0 mm 0.00 in0.0 mm
06:45 PM 46.2°F7.9°C 35.6°F2.0°C 67% 5.3 mph WSW8.5 kmh WSW 8.1 mph13.0 kmh 28.97 in981.0 mb 0.00 in0.0 mm 0.00 in0.0 mm 0.00 in0.0 mm
06:50 PM 46.2°F7.9°C 35.6°F2.0°C 67% 4.8 mph WSW7.7 kmh WSW 8.1 mph13.0 kmh 28.97 in981.0 mb 0.00 in0.0 mm 0.00 in0.0 mm 0.00 in0.0 mm
06:55 PM 46.2°F7.9°C 37.4°F3.0°C 68% 4.1 mph WSW6.6 kmh WSW 9.6 mph15.4 kmh 28.97 in981.0 mb 0.00 in0.0 mm 0.00 in0.0 mm 0.00 in0.0 mm
07:00 PM 46.0°F7.8°C 35.6°F2.0°C 68% 3.7 mph SW6.0 kmh SW 9.6 mph15.4 kmh 28.97 in981.0 mb 0.00 in0.0 mm 0.00 in0.0 mm 0.00 in0.0 mm
07:05 PM 46.0°F7.8°C 35.6°F2.0°C 68% 4.1 mph SW6.6 kmh SW 6.3 mph10.1 kmh 28.97 in981.0 mb 0.00 in0.0 mm 0.00 in0.0 mm 0.00 in0.0 mm
07:10 PM 46.0°F7.8°C 35.6°F2.0°C 68% 4.7 mph SW7.6 kmh SW 6.3 mph10.1 kmh 28.97 in981.0 mb 0.00 in0.0 mm 0.00 in0.0 mm 0.00 in0.0 mm
07:15 PM 46.0°F7.8°C 35.6°F2.0°C 68% 4.0 mph WSW6.4 kmh WSW 6.5 mph10.5 kmh 28.97 in981.0 mb 0.00 in0.0 mm 0.00 in0.0 mm 0.00 in0.0 mm
07:20 PM 46.0°F7.8°C 35.6°F2.0°C 68% 4.3 mph WSW6.9 kmh WSW 6.5 mph10.5 kmh 28.97 in981.0 mb 0.00 in0.0 mm 0.00 in0.0 mm 0.00 in0.0 mm
07:25 PM 46.0°F7.8°C 35.6°F2.0°C 68% 5.2 mph WSW8.4 kmh WSW 9.4 mph15.1 kmh 28.97 in981.0 mb 0.00 in0.0 mm 0.00 in0.0 mm 0.00 in0.0 mm
07:30 PM 46.0°F7.8°C 35.6°F2.0°C 68% 5.2 mph WSW8.4 kmh WSW 9.4 mph15.1 kmh 28.97 in981.0 mb 0.00 in0.0 mm 0.00 in0.0 mm 0.00 in0.0 mm
07:35 PM 45.9°F7.7°C 35.6°F2.0°C 69% 4.7 mph WSW7.6 kmh WSW 8.7 mph14.0 kmh 28.97 in981.0 mb 0.00 in0.0 mm 0.00 in0.0 mm 0.00 in0.0 mm
07:40 PM 45.9°F7.7°C 35.6°F2.0°C 69% 4.5 mph WSW7.2 kmh WSW 8.7 mph14.0 kmh 28.97 in981.0 mb 0.00 in0.0 mm 0.00 in0.0 mm 0.00 in0.0 mm
07:45 PM 45.7°F7.6°C 35.6°F2.0°C 69% 3.2 mph WSW5.1 kmh WSW 6.9 mph11.1 kmh 28.97 in981.0 mb 0.00 in0.0 mm 0.00 in0.0 mm 0.00 in0.0 mm
07:50 PM 45.7°F7.6°C 37.4°F3.0°C 70% 2.8 mph WSW4.5 kmh WSW 6.9 mph11.1 kmh 28.97 in981.0 mb 0.00 in0.0 mm 0.00 in0.0 mm 0.00 in0.0 mm
07:55 PM 45.5°F7.5°C 37.4°F3.0°C 70% 2.8 mph SW4.5 kmh SW 4.3 mph6.9 kmh 28.97 in981.0 mb 0.00 in0.0 mm 0.00 in0.0 mm 0.00 in0.0 mm
08:00 PM 45.5°F7.5°C 37.4°F3.0°C 70% 2.8 mph SW4.5 kmh SW 4.3 mph6.9 kmh 28.97 in981.0 mb 0.00 in0.0 mm 0.00 in0.0 mm 0.00 in0.0 mm
08:05 PM 45.5°F7.5°C 37.4°F3.0°C 70% 2.7 mph SW4.3 kmh SW 4.0 mph6.4 kmh 28.97 in981.0 mb 0.00 in0.0 mm 0.00 in0.0 mm 0.00 in0.0 mm
08:10 PM 45.5°F7.5°C 37.4°F3.0°C 71% 3.1 mph SW5.0 kmh SW 6.3 mph10.1 kmh 28.97 in981.0 mb 0.00 in0.0 mm 0.00 in0.0 mm 0.00 in0.0 mm
08:15 PM 45.3°F7.4°C 37.4°F3.0°C 71% 2.8 mph SW4.5 kmh SW 6.3 mph10.1 kmh 28.97 in981.0 mb 0.00 in0.0 mm 0.00 in0.0 mm 0.00 in0.0 mm
08:20 PM 45.3°F7.4°C 37.4°F3.0°C 71% 2.3 mph SW3.7 kmh SW 4.0 mph6.4 kmh 28.97 in981.0 mb 0.00 in0.0 mm 0.00 in0.0 mm 0.00 in0.0 mm
08:25 PM 45.1°F7.3°C 37.4°F3.0°C 71% 2.4 mph SW3.9 kmh SW 4.9 mph7.9 kmh 28.97 in981.0 mb 0.00 in0.0 mm 0.00 in0.0 mm 0.00 in0.0 mm
08:30 PM 45.3°F7.4°C 37.4°F3.0°C 71% 3.2 mph SW5.1 kmh SW 5.6 mph9.0 kmh 28.97 in981.0 mb 0.00 in0.0 mm 0.00 in0.0 mm 0.00 in0.0 mm
08:35 PM 45.3°F7.4°C 37.4°F3.0°C 71% 3.0 mph SSW4.8 kmh SSW 5.6 mph9.0 kmh 28.97 in981.0 mb 0.00 in0.0 mm 0.00 in0.0 mm 0.00 in0.0 mm
08:40 PM 45.3°F7.4°C 37.4°F3.0°C 71% 2.6 mph SW4.2 kmh SW 4.9 mph7.9 kmh 28.97 in981.0 mb 0.00 in0.0 mm 0.00 in0.0 mm 0.00 in0.0 mm
08:45 PM 45.3°F7.4°C 37.4°F3.0°C 71% 2.9 mph SW4.7 kmh SW 5.4 mph8.7 kmh 28.97 in981.0 mb 0.00 in0.0 mm 0.00 in0.0 mm 0.00 in0.0 mm
08:50 PM 45.3°F7.4°C 37.4°F3.0°C 71% 3.2 mph SW5.1 kmh SW 5.6 mph9.0 kmh 28.97 in981.0 mb 0.00 in0.0 mm 0.00 in0.0 mm 0.00 in0.0 mm
08:55 PM 45.5°F7.5°C 37.4°F3.0°C 71% 3.4 mph SW5.5 kmh SW 6.0 mph9.7 kmh 28.97 in981.0 mb 0.00 in0.0 mm 0.00 in0.0 mm 0.00 in0.0 mm
09:00 PM 45.3°F7.4°C 37.4°F3.0°C 71% 2.7 mph SW4.3 kmh SW 6.5 mph10.5 kmh 28.97 in981.0 mb 0.00 in0.0 mm 0.00 in0.0 mm 0.00 in0.0 mm
09:05 PM 45.5°F7.5°C 37.4°F3.0°C 71% 3.6 mph SW5.8 kmh SW 6.5 mph10.5 kmh 28.97 in981.0 mb 0.00 in0.0 mm 0.00 in0.0 mm 0.00 in0.0 mm
09:10 PM 45.1°F7.3°C 37.4°F3.0°C 71% 4.1 mph SW6.6 kmh SW 6.5 mph10.5 kmh 28.97 in981.0 mb 0.00 in0.0 mm 0.00 in0.0 mm 0.00 in0.0 mm
09:15 PM 45.1°F7.3°C 37.4°F3.0°C 71% 3.8 mph SW6.1 kmh SW 6.5 mph10.5 kmh 28.97 in981.0 mb 0.00 in0.0 mm 0.00 in0.0 mm 0.00 in0.0 mm
09:20 PM 45.1°F7.3°C 37.4°F3.0°C 71% 4.0 mph WSW6.4 kmh WSW 6.0 mph9.7 kmh 28.97 in981.0 mb 0.00 in0.0 mm 0.00 in0.0 mm 0.00 in0.0 mm
09:25 PM 45.0°F7.2°C 37.4°F3.0°C 71% 3.8 mph WSW6.1 kmh WSW 6.3 mph10.1 kmh 28.97 in981.0 mb 0.00 in0.0 mm 0.00 in0.0 mm 0.00 in0.0 mm
09:30 PM 45.0°F7.2°C 37.4°F3.0°C 72% 3.8 mph WSW6.1 kmh WSW 7.6 mph12.2 kmh 28.97 in981.0 mb 0.00 in0.0 mm 0.00 in0.0 mm 0.00 in0.0 mm
09:35 PM 45.0°F7.2°C 37.4°F3.0°C 72% 3.6 mph WSW5.8 kmh WSW 7.6 mph12.2 kmh 28.97 in981.0 mb 0.00 in0.0 mm 0.00 in0.0 mm 0.00 in0.0 mm
09:40 PM 45.0°F7.2°C 37.4°F3.0°C 72% 3.8 mph WSW6.1 kmh WSW 7.6 mph12.2 kmh 28.97 in981.0 mb 0.00 in0.0 mm 0.00 in0.0 mm 0.00 in0.0 mm
09:45 PM 44.8°F7.1°C 37.4°F3.0°C 72% 3.3 mph WSW5.3 kmh WSW 5.8 mph9.3 kmh 28.97 in981.0 mb 0.00 in0.0 mm 0.00 in0.0 mm 0.00 in0.0 mm
09:50 PM 44.8°F7.1°C 37.4°F3.0°C 72% 3.2 mph SW5.1 kmh SW 6.5 mph10.5 kmh 28.97 in981.0 mb 0.00 in0.0 mm 0.00 in0.0 mm 0.00 in0.0 mm
09:55 PM 44.8°F7.1°C 37.4°F3.0°C 72% 3.4 mph WSW5.5 kmh WSW 6.5 mph10.5 kmh 28.97 in981.0 mb 0.00 in0.0 mm 0.00 in0.0 mm 0.00 in0.0 mm
10:00 PM 44.8°F7.1°C 37.4°F3.0°C 72% 3.4 mph WSW5.5 kmh WSW 4.9 mph7.9 kmh 28.97 in981.0 mb 0.00 in0.0 mm 0.00 in0.0 mm 0.00 in0.0 mm
10:05 PM 44.6°F7.0°C 37.4°F3.0°C 72% 4.0 mph SW6.4 kmh SW 7.6 mph12.2 kmh 28.97 in981.0 mb 0.00 in0.0 mm 0.00 in0.0 mm 0.00 in0.0 mm
10:10 PM 44.6°F7.0°C 37.4°F3.0°C 72% 4.7 mph WSW7.6 kmh WSW 7.6 mph12.2 kmh 28.97 in981.0 mb 0.00 in0.0 mm 0.00 in0.0 mm 0.00 in0.0 mm
10:15 PM 44.6°F7.0°C 37.4°F3.0°C 72% 4.1 mph WSW6.6 kmh WSW 7.4 mph11.9 kmh 28.97 in981.0 mb 0.00 in0.0 mm 0.00 in0.0 mm 0.00 in0.0 mm
10:20 PM 44.6°F7.0°C 37.4°F3.0°C 72% 3.5 mph WSW5.6 kmh WSW 5.6 mph9.0 kmh 28.97 in981.0 mb 0.00 in0.0 mm 0.00 in0.0 mm 0.00 in0.0 mm
10:25 PM 44.6°F7.0°C 37.4°F3.0°C 73% 3.2 mph WSW5.1 kmh WSW 5.6 mph9.0 kmh 28.97 in981.0 mb 0.00 in0.0 mm 0.00 in0.0 mm 0.00 in0.0 mm
10:30 PM 44.6°F7.0°C 37.4°F3.0°C 73% 3.2 mph SW5.1 kmh SW 5.4 mph8.7 kmh 28.97 in981.0 mb 0.00 in0.0 mm 0.00 in0.0 mm 0.00 in0.0 mm
10:35 PM 44.6°F7.0°C 37.4°F3.0°C 73% 3.9 mph SW6.3 kmh SW 6.5 mph10.5 kmh 28.97 in981.0 mb 0.00 in0.0 mm 0.00 in0.0 mm 0.00 in0.0 mm
10:40 PM 44.6°F7.0°C 37.4°F3.0°C 73% 3.7 mph WSW6.0 kmh WSW 6.5 mph10.5 kmh 28.77 in974.3 mb 0.00 in0.0 mm 0.00 in0.0 mm 0.00 in0.0 mm
10:45 PM 44.6°F7.0°C 37.4°F3.0°C 73% 3.6 mph WSW5.8 kmh WSW 5.6 mph9.0 kmh 28.77 in974.3 mb 0.00 in0.0 mm 0.00 in0.0 mm 0.00 in0.0 mm
10:50 PM 44.6°F7.0°C 37.4°F3.0°C 73% 3.7 mph SW6.0 kmh SW 7.6 mph12.2 kmh 28.77 in974.3 mb 0.00 in0.0 mm 0.00 in0.0 mm 0.00 in0.0 mm
10:55 PM 44.6°F7.0°C 37.4°F3.0°C 73% 3.3 mph SW5.3 kmh SW 7.6 mph12.2 kmh 28.94 in980.0 mb 0.00 in0.0 mm 0.00 in0.0 mm 0.00 in0.0 mm
11:00 PM 44.6°F7.0°C 37.4°F3.0°C 74% 3.2 mph SW5.1 kmh SW 6.3 mph10.1 kmh 28.94 in980.0 mb 0.00 in0.0 mm 0.00 in0.0 mm 0.00 in0.0 mm
11:05 PM 44.6°F7.0°C 37.4°F3.0°C 74% 3.9 mph SSW6.3 kmh SSW 9.4 mph15.1 kmh 28.94 in980.0 mb 0.00 in0.0 mm 0.00 in0.0 mm 0.00 in0.0 mm
11:10 PM 44.6°F7.0°C 37.4°F3.0°C 74% 4.2 mph SSW6.8 kmh SSW 9.4 mph15.1 kmh 28.94 in980.0 mb 0.00 in0.0 mm 0.00 in0.0 mm 0.00 in0.0 mm
11:15 PM 44.6°F7.0°C 37.4°F3.0°C 74% 4.5 mph WSW7.2 kmh WSW 7.4 mph11.9 kmh 28.94 in980.0 mb 0.00 in0.0 mm 0.00 in0.0 mm 0.00 in0.0 mm
11:20 PM 44.6°F7.0°C 37.4°F3.0°C 74% 5.3 mph WSW8.5 kmh WSW 8.5 mph13.7 kmh 28.94 in980.0 mb 0.00 in0.0 mm 0.00 in0.0 mm 0.00 in0.0 mm
11:25 PM 44.6°F7.0°C 37.4°F3.0°C 74% 4.9 mph SW7.9 kmh SW 9.2 mph14.8 kmh 28.97 in981.0 mb 0.00 in0.0 mm 0.00 in0.0 mm 0.00 in0.0 mm
11:30 PM 44.8°F7.1°C 37.4°F3.0°C 74% 4.2 mph SW6.8 kmh SW 9.2 mph14.8 kmh 28.97 in981.0 mb 0.00 in0.0 mm 0.00 in0.0 mm 0.00 in0.0 mm
11:35 PM 44.8°F7.1°C 37.4°F3.0°C 74% 3.3 mph WSW5.3 kmh WSW 4.9 mph7.9 kmh 28.97 in981.0 mb 0.00 in0.0 mm 0.00 in0.0 mm 0.00 in0.0 mm
11:40 PM 44.8°F7.1°C 37.4°F3.0°C 74% 3.1 mph SW5.0 kmh SW 4.9 mph7.9 kmh 28.91 in979.0 mb 0.00 in0.0 mm 0.00 in0.0 mm 0.00 in0.0 mm
11:45 PM 44.8°F7.1°C 37.4°F3.0°C 75% 3.0 mph SW4.8 kmh SW 3.8 mph6.1 kmh 28.91 in979.0 mb 0.00 in0.0 mm 0.00 in0.0 mm 0.00 in0.0 mm
11:50 PM 44.8°F7.1°C 37.4°F3.0°C 75% 2.7 mph SW4.3 kmh SW 4.3 mph6.9 kmh 28.91 in979.0 mb 0.00 in0.0 mm 0.00 in0.0 mm 0.00 in0.0 mm
11:55 PM 44.8°F7.1°C 37.4°F3.0°C 75% 2.5 mph SW4.0 kmh SW 4.3 mph6.9 kmh 28.97 in981.0 mb 0.00 in0.0 mm 0.00 in0.0 mm 0.00 in0.0 mm